Hovedside
METAR-TAF:

METAR-TAF

Lufthavner :

Esbjerg, Danmark

Esbjerg lufthavn

breddegrad: 55-32N, lengdegrad: 008-34E, høyde over havet: 30 m

Gjeldene værobservasjon

Denne rapporten ble laget for 12 minutter siden, klokken 22:20 UTC
Vind 5 kt fra Nord
Temperatur 15°C
Luftfuktighet 94%
Trykk 1011 hPa
Sikt 10 km eller mer

METAR: EKEB 242220Z AUTO 01005KT 9999NDV BKN008/// 15/14 Q1011

Tid: 00:32 (22:32 UTC)

Varsel

Denne rapporten ble laget for 5 timer og 13 minutter siden, klokken 17:19 UTC
Varsel gyldig fra 24. klokken 18 UTC til 24. klokken 22 UTC
Vind 5 kt fra skiftende retning
Sikt 10 km eller mer
Brutte skyer i en høyde av 3000 ft
Midlertidig
fra 24. klokken 18 UTC til 24. klokken 20 UTC
Brutte skyer i en høyde av 1200 ft
Spredte skyer i en høyde av 2000 ft, Bygeskyer.
regnbyger

TAF: EKEB 241719Z 2418/2422 VRB05KT 9999 BKN030 TEMPO 2418/2420 SHRA BKN012 SCT020CB

Værobservasjoner og værvarsel for over 4000 flyplasser (METAR- og TAF-rapporter).

Tilgjengelige stasjoner er representert av de røde og gule prikkene på kartet.

Hold musepekeren over prikken for å se navnet på stasjonen.

Klikk så for å se værobservasjoner og -varsler.

For å forandre kartet kan du klikke på den grønne knappen med svart kryss for å zoome inn, på den grønne knappen med strek for å zoome ut, eller på de grønne pilene for å se tilstøtende kart.


METAR-TAF: